Manitou, Oklahoma
Current Conditions -  °F | °C
As of 1:53 PM on Thursday 27 Nov 2014 (Local Time) from KFDR Reporting Station
Clear Clear  
Wind Chill: 50°   Ceiling: Unl
Heat Index: 50°   Visibility: 10mi
Dew Point: 29°   Wind: 8mph
Humidity: 44%   Direction: 190°S
Pressure: 30.4"   Gusts: NA
Location:  34.51°N, 98.98°W
Report Text: KFDR 271953Z AUTO 19007KT 10SM CLR 10/M02 A3040 RMK AO2 SLP297 T01001017
Loading
Personal Weather Stations






























Interactive Weather Map New forecast layout! Learn more

10-Day Weather Forecast

Advertisements
Track Severe Weather on mobile